sensor_id;sensor_type;location;lat;lon;timestamp;P1;durP1;ratioP1;P2;durP2;ratioP2
85328;SDS011;76315;47.638;21.652;2024-03-02T00:02:24;22.30;;;12.20;;
85328;SDS011;76315;47.638;21.652;2024-03-02T00:04:50;23.20;;;11.80;;
85328;SDS011;76315;47.638;21.652;2024-03-02T00:07:16;24.10;;;11.70;;
85328;SDS011;76315;47.638;21.652;2024-03-02T00:09:42;25.73;;;12.07;;
85328;SDS011;76315;47.638;21.652;2024-03-02T00:12:08;23.23;;;11.13;;
85328;SDS011;76315;47.638;21.652;2024-03-02T00:14:35;27.58;;;12.45;;
85328;SDS011;76315;47.638;21.652;2024-03-02T00:17:00;23.03;;;11.70;;
85328;SDS011;76315;47.638;21.652;2024-03-02T00:19:26;21.27;;;11.13;;
85328;SDS011;76315;47.638;21.652;2024-03-02T00:21:51;23.65;;;11.82;;
85328;SDS011;76315;47.638;21.652;2024-03-02T00:24:19;20.53;;;11.23;;
85328;SDS011;76315;47.638;21.652;2024-03-02T00:26:47;24.43;;;12.47;;
85328;SDS011;76315;47.638;21.652;2024-03-02T00:29:14;22.50;;;10.90;;
85328;SDS011;76315;47.638;21.652;2024-03-02T00:31:41;25.42;;;12.15;;
85328;SDS011;76315;47.638;21.652;2024-03-02T00:34:07;26.23;;;12.10;;
85328;SDS011;76315;47.638;21.652;2024-03-02T00:36:33;22.42;;;11.73;;
85328;SDS011;76315;47.638;21.652;2024-03-02T00:38:58;25.30;;;12.07;;
85328;SDS011;76315;47.638;21.652;2024-03-02T00:41:27;20.45;;;11.40;;
85328;SDS011;76315;47.638;21.652;2024-03-02T00:46:24;28.98;;;14.27;;
85328;SDS011;76315;47.638;21.652;2024-03-02T00:48:55;29.73;;;12.82;;
85328;SDS011;76315;47.638;21.652;2024-03-02T00:51:23;22.48;;;11.65;;
85328;SDS011;76315;47.638;21.652;2024-03-02T00:53:50;25.02;;;11.80;;
85328;SDS011;76315;47.638;21.652;2024-03-02T00:56:17;22.83;;;11.87;;
85328;SDS011;76315;47.638;21.652;2024-03-02T00:58:43;31.08;;;11.05;;
85328;SDS011;76315;47.638;21.652;2024-03-02T01:01:09;22.13;;;11.48;;
85328;SDS011;76315;47.638;21.652;2024-03-02T01:03:35;23.13;;;12.15;;
85328;SDS011;76315;47.638;21.652;2024-03-02T01:06:02;24.23;;;11.27;;
85328;SDS011;76315;47.638;21.652;2024-03-02T01:08:28;25.30;;;11.63;;
85328;SDS011;76315;47.638;21.652;2024-03-02T01:10:54;22.23;;;10.80;;
85328;SDS011;76315;47.638;21.652;2024-03-02T01:13:21;23.60;;;11.50;;
85328;SDS011;76315;47.638;21.652;2024-03-02T01:15:48;21.67;;;11.23;;
85328;SDS011;76315;47.638;21.652;2024-03-02T01:18:13;23.10;;;10.90;;
85328;SDS011;76315;47.638;21.652;2024-03-02T01:20:39;23.07;;;11.53;;
85328;SDS011;76315;47.638;21.652;2024-03-02T01:23:04;23.90;;;11.03;;
85328;SDS011;76315;47.638;21.652;2024-03-02T01:25:30;23.27;;;11.40;;
85328;SDS011;76315;47.638;21.652;2024-03-02T01:27:55;24.92;;;12.57;;
85328;SDS011;76315;47.638;21.652;2024-03-02T01:30:21;25.73;;;11.40;;
85328;SDS011;76315;47.638;21.652;2024-03-02T01:32:46;26.23;;;11.70;;
85328;SDS011;76315;47.638;21.652;2024-03-02T01:35:12;22.55;;;10.90;;
85328;SDS011;76315;47.638;21.652;2024-03-02T01:37:38;24.17;;;10.80;;
85328;SDS011;76315;47.638;21.652;2024-03-02T01:40:03;25.88;;;11.82;;
85328;SDS011;76315;47.638;21.652;2024-03-02T01:42:35;20.98;;;11.50;;
85328;SDS011;76315;47.638;21.652;2024-03-02T01:45:01;24.93;;;12.27;;
85328;SDS011;76315;47.638;21.652;2024-03-02T01:47:27;25.15;;;11.93;;
85328;SDS011;76315;47.638;21.652;2024-03-02T01:49:53;26.87;;;11.97;;
85328;SDS011;76315;47.638;21.652;2024-03-02T01:52:18;19.90;;;11.13;;
85328;SDS011;76315;47.638;21.652;2024-03-02T01:54:44;23.03;;;11.33;;
85328;SDS011;76315;47.638;21.652;2024-03-02T01:57:09;23.73;;;11.03;;
85328;SDS011;76315;47.638;21.652;2024-03-02T01:59:35;24.52;;;10.63;;
85328;SDS011;76315;47.638;21.652;2024-03-02T02:02:00;22.17;;;10.90;;
85328;SDS011;76315;47.638;21.652;2024-03-02T02:04:26;23.27;;;10.95;;
85328;SDS011;76315;47.638;21.652;2024-03-02T02:06:53;22.05;;;10.80;;
85328;SDS011;76315;47.638;21.652;2024-03-02T02:09:19;22.50;;;10.95;;
85328;SDS011;76315;47.638;21.652;2024-03-02T02:11:44;25.15;;;10.70;;
85328;SDS011;76315;47.638;21.652;2024-03-02T02:14:10;22.63;;;10.37;;
85328;SDS011;76315;47.638;21.652;2024-03-02T02:16:36;26.98;;;11.85;;
85328;SDS011;76315;47.638;21.652;2024-03-02T02:19:02;21.87;;;11.30;;
85328;SDS011;76315;47.638;21.652;2024-03-02T02:21:28;22.70;;;10.50;;
85328;SDS011;76315;47.638;21.652;2024-03-02T02:23:53;21.03;;;10.03;;
85328;SDS011;76315;47.638;21.652;2024-03-02T02:26:19;21.40;;;10.38;;
85328;SDS011;76315;47.638;21.652;2024-03-02T02:28:44;20.00;;;10.00;;
85328;SDS011;76315;47.638;21.652;2024-03-02T02:31:12;19.35;;;10.18;;
85328;SDS011;76315;47.638;21.652;2024-03-02T02:33:41;20.20;;;10.50;;
85328;SDS011;76315;47.638;21.652;2024-03-02T02:36:07;21.03;;;9.70;;
85328;SDS011;76315;47.638;21.652;2024-03-02T02:38:36;17.23;;;8.93;;
85328;SDS011;76315;47.638;21.652;2024-03-02T02:41:04;18.95;;;9.00;;
85328;SDS011;76315;47.638;21.652;2024-03-02T02:43:29;17.17;;;8.70;;
85328;SDS011;76315;47.638;21.652;2024-03-02T02:45:55;18.35;;;8.60;;
85328;SDS011;76315;47.638;21.652;2024-03-02T02:48:21;16.27;;;7.87;;
85328;SDS011;76315;47.638;21.652;2024-03-02T02:50:46;14.90;;;7.60;;
85328;SDS011;76315;47.638;21.652;2024-03-02T02:53:12;17.02;;;7.82;;
85328;SDS011;76315;47.638;21.652;2024-03-02T02:55:39;20.50;;;8.43;;
85328;SDS011;76315;47.638;21.652;2024-03-02T02:58:11;17.00;;;8.25;;
85328;SDS011;76315;47.638;21.652;2024-03-02T03:00:37;21.38;;;8.93;;
85328;SDS011;76315;47.638;21.652;2024-03-02T03:03:03;18.80;;;7.97;;
85328;SDS011;76315;47.638;21.652;2024-03-02T03:05:29;18.98;;;8.60;;
85328;SDS011;76315;47.638;21.652;2024-03-02T03:07:54;16.20;;;8.70;;
85328;SDS011;76315;47.638;21.652;2024-03-02T03:10:20;18.02;;;8.27;;
85328;SDS011;76315;47.638;21.652;2024-03-02T03:12:48;20.47;;;8.77;;
85328;SDS011;76315;47.638;21.652;2024-03-02T03:15:14;22.27;;;9.13;;
85328;SDS011;76315;47.638;21.652;2024-03-02T03:17:41;22.15;;;8.07;;
85328;SDS011;76315;47.638;21.652;2024-03-02T03:20:07;19.27;;;8.57;;
85328;SDS011;76315;47.638;21.652;2024-03-02T03:22:36;16.60;;;8.45;;
85328;SDS011;76315;47.638;21.652;2024-03-02T03:25:02;19.88;;;9.02;;
85328;SDS011;76315;47.638;21.652;2024-03-02T03:27:28;20.40;;;8.75;;
85328;SDS011;76315;47.638;21.652;2024-03-02T03:29:54;15.05;;;8.25;;
85328;SDS011;76315;47.638;21.652;2024-03-02T03:32:20;17.10;;;9.13;;
85328;SDS011;76315;47.638;21.652;2024-03-02T03:34:45;18.53;;;8.47;;
85328;SDS011;76315;47.638;21.652;2024-03-02T03:37:11;17.30;;;8.70;;
85328;SDS011;76315;47.638;21.652;2024-03-02T03:39:36;19.97;;;8.17;;
85328;SDS011;76315;47.638;21.652;2024-03-02T03:42:02;18.57;;;8.60;;
85328;SDS011;76315;47.638;21.652;2024-03-02T03:44:28;15.52;;;8.73;;
85328;SDS011;76315;47.638;21.652;2024-03-02T03:46:53;14.17;;;8.17;;
85328;SDS011;76315;47.638;21.652;2024-03-02T03:49:19;17.73;;;8.88;;
85328;SDS011;76315;47.638;21.652;2024-03-02T03:51:44;20.77;;;9.30;;
85328;SDS011;76315;47.638;21.652;2024-03-02T03:54:10;18.50;;;9.23;;
85328;SDS011;76315;47.638;21.652;2024-03-02T03:56:36;19.15;;;9.13;;
85328;SDS011;76315;47.638;21.652;2024-03-02T03:59:02;17.65;;;8.25;;
85328;SDS011;76315;47.638;21.652;2024-03-02T04:01:28;16.83;;;9.00;;
85328;SDS011;76315;47.638;21.652;2024-03-02T04:03:53;18.33;;;9.20;;
85328;SDS011;76315;47.638;21.652;2024-03-02T04:06:19;17.83;;;8.70;;
85328;SDS011;76315;47.638;21.652;2024-03-02T04:08:44;19.85;;;9.60;;
85328;SDS011;76315;47.638;21.652;2024-03-02T04:11:10;16.73;;;8.10;;
85328;SDS011;76315;47.638;21.652;2024-03-02T04:13:35;20.00;;;9.13;;
85328;SDS011;76315;47.638;21.652;2024-03-02T04:16:01;15.90;;;8.83;;
85328;SDS011;76315;47.638;21.652;2024-03-02T04:18:28;21.88;;;9.75;;
85328;SDS011;76315;47.638;21.652;2024-03-02T04:20:54;22.17;;;9.90;;
85328;SDS011;76315;47.638;21.652;2024-03-02T04:23:19;17.10;;;8.70;;
85328;SDS011;76315;47.638;21.652;2024-03-02T04:25:45;18.57;;;9.03;;
85328;SDS011;76315;47.638;21.652;2024-03-02T04:28:10;17.50;;;9.15;;
85328;SDS011;76315;47.638;21.652;2024-03-02T04:30:37;20.77;;;9.70;;
85328;SDS011;76315;47.638;21.652;2024-03-02T04:33:03;22.80;;;9.93;;
85328;SDS011;76315;47.638;21.652;2024-03-02T04:35:29;19.45;;;9.82;;
85328;SDS011;76315;47.638;21.652;2024-03-02T04:37:54;16.15;;;9.07;;
85328;SDS011;76315;47.638;21.652;2024-03-02T04:40:20;19.93;;;9.47;;
85328;SDS011;76315;47.638;21.652;2024-03-02T04:42:46;20.50;;;9.02;;
85328;SDS011;76315;47.638;21.652;2024-03-02T04:45:11;20.90;;;9.43;;
85328;SDS011;76315;47.638;21.652;2024-03-02T04:47:37;18.27;;;9.23;;
85328;SDS011;76315;47.638;21.652;2024-03-02T04:50:02;19.35;;;8.85;;
85328;SDS011;76315;47.638;21.652;2024-03-02T04:52:28;16.43;;;8.03;;
85328;SDS011;76315;47.638;21.652;2024-03-02T04:54:54;16.20;;;7.75;;
85328;SDS011;76315;47.638;21.652;2024-03-02T04:57:41;13.77;;;7.87;;
85328;SDS011;76315;47.638;21.652;2024-03-02T05:00:07;18.88;;;7.90;;
85328;SDS011;76315;47.638;21.652;2024-03-02T05:02:37;22.08;;;8.98;;
85328;SDS011;76315;47.638;21.652;2024-03-02T05:05:02;17.37;;;8.47;;
85328;SDS011;76315;47.638;21.652;2024-03-02T05:07:28;14.02;;;7.65;;
85328;SDS011;76315;47.638;21.652;2024-03-02T05:09:54;18.83;;;7.67;;
85328;SDS011;76315;47.638;21.652;2024-03-02T05:12:19;16.13;;;8.17;;
85328;SDS011;76315;47.638;21.652;2024-03-02T05:15:05;19.25;;;8.55;;
85328;SDS011;76315;47.638;21.652;2024-03-02T05:17:32;16.45;;;7.97;;
85328;SDS011;76315;47.638;21.652;2024-03-02T05:19:58;14.83;;;7.87;;
85328;SDS011;76315;47.638;21.652;2024-03-02T05:25:16;17.67;;;8.35;;
85328;SDS011;76315;47.638;21.652;2024-03-02T05:27:44;16.60;;;7.73;;
85328;SDS011;76315;47.638;21.652;2024-03-02T05:30:11;15.82;;;8.25;;
85328;SDS011;76315;47.638;21.652;2024-03-02T05:32:39;15.45;;;8.25;;
85328;SDS011;76315;47.638;21.652;2024-03-02T05:35:05;18.07;;;8.13;;
85328;SDS011;76315;47.638;21.652;2024-03-02T05:37:31;18.67;;;9.73;;
85328;SDS011;76315;47.638;21.652;2024-03-02T05:39:57;18.45;;;9.38;;
85328;SDS011;76315;47.638;21.652;2024-03-02T05:42:22;14.83;;;8.30;;
85328;SDS011;76315;47.638;21.652;2024-03-02T05:44:48;15.77;;;8.23;;
85328;SDS011;76315;47.638;21.652;2024-03-02T05:47:13;17.60;;;9.18;;
85328;SDS011;76315;47.638;21.652;2024-03-02T05:49:39;19.10;;;9.40;;
85328;SDS011;76315;47.638;21.652;2024-03-02T05:52:04;20.23;;;9.47;;
85328;SDS011;76315;47.638;21.652;2024-03-02T05:54:30;21.50;;;9.40;;
85328;SDS011;76315;47.638;21.652;2024-03-02T05:56:56;21.23;;;9.33;;
85328;SDS011;76315;47.638;21.652;2024-03-02T05:59:21;19.70;;;10.43;;
85328;SDS011;76315;47.638;21.652;2024-03-02T06:01:47;19.98;;;8.57;;
85328;SDS011;76315;47.638;21.652;2024-03-02T06:04:15;17.08;;;8.70;;
85328;SDS011;76315;47.638;21.652;2024-03-02T06:06:41;20.53;;;9.00;;
85328;SDS011;76315;47.638;21.652;2024-03-02T06:09:06;17.35;;;9.55;;
85328;SDS011;76315;47.638;21.652;2024-03-02T06:11:37;15.75;;;9.15;;
85328;SDS011;76315;47.638;21.652;2024-03-02T06:14:03;19.30;;;9.73;;
85328;SDS011;76315;47.638;21.652;2024-03-02T06:16:29;20.90;;;10.15;;
85328;SDS011;76315;47.638;21.652;2024-03-02T06:18:55;18.37;;;10.10;;
85328;SDS011;76315;47.638;21.652;2024-03-02T06:21:22;19.25;;;9.02;;
85328;SDS011;76315;47.638;21.652;2024-03-02T06:23:51;19.23;;;9.07;;
85328;SDS011;76315;47.638;21.652;2024-03-02T06:26:16;16.90;;;8.80;;
85328;SDS011;76315;47.638;21.652;2024-03-02T06:28:42;18.80;;;9.60;;
85328;SDS011;76315;47.638;21.652;2024-03-02T06:31:08;16.25;;;8.38;;
85328;SDS011;76315;47.638;21.652;2024-03-02T06:33:34;16.58;;;8.45;;
85328;SDS011;76315;47.638;21.652;2024-03-02T06:36:00;18.20;;;9.40;;
85328;SDS011;76315;47.638;21.652;2024-03-02T06:38:25;17.20;;;8.50;;
85328;SDS011;76315;47.638;21.652;2024-03-02T06:40:51;19.55;;;9.48;;
85328;SDS011;76315;47.638;21.652;2024-03-02T06:43:16;19.52;;;9.82;;
85328;SDS011;76315;47.638;21.652;2024-03-02T06:45:42;21.17;;;9.27;;
85328;SDS011;76315;47.638;21.652;2024-03-02T06:48:08;18.58;;;9.18;;
85328;SDS011;76315;47.638;21.652;2024-03-02T06:50:33;19.00;;;9.60;;
85328;SDS011;76315;47.638;21.652;2024-03-02T06:52:59;18.15;;;8.65;;
85328;SDS011;76315;47.638;21.652;2024-03-02T06:55:25;16.70;;;8.80;;
85328;SDS011;76315;47.638;21.652;2024-03-02T06:57:50;20.50;;;9.40;;
85328;SDS011;76315;47.638;21.652;2024-03-02T07:00:17;17.65;;;9.55;;
85328;SDS011;76315;47.638;21.652;2024-03-02T07:02:43;23.65;;;9.90;;
85328;SDS011;76315;47.638;21.652;2024-03-02T07:05:09;19.27;;;9.77;;
85328;SDS011;76315;47.638;21.652;2024-03-02T07:07:35;20.92;;;9.50;;
85328;SDS011;76315;47.638;21.652;2024-03-02T07:10:02;18.55;;;9.60;;
85328;SDS011;76315;47.638;21.652;2024-03-02T07:12:30;19.17;;;10.35;;
85328;SDS011;76315;47.638;21.652;2024-03-02T07:14:56;17.93;;;9.23;;
85328;SDS011;76315;47.638;21.652;2024-03-02T07:17:28;16.67;;;8.65;;
85328;SDS011;76315;47.638;21.652;2024-03-02T07:19:54;20.63;;;9.93;;
85328;SDS011;76315;47.638;21.652;2024-03-02T07:22:20;17.47;;;9.37;;
85328;SDS011;76315;47.638;21.652;2024-03-02T07:24:45;18.63;;;9.52;;
85328;SDS011;76315;47.638;21.652;2024-03-02T07:27:11;18.30;;;9.02;;
85328;SDS011;76315;47.638;21.652;2024-03-02T07:29:38;18.13;;;9.25;;
85328;SDS011;76315;47.638;21.652;2024-03-02T07:32:04;17.75;;;9.38;;
85328;SDS011;76315;47.638;21.652;2024-03-02T07:34:30;20.13;;;10.00;;
85328;SDS011;76315;47.638;21.652;2024-03-02T07:36:56;19.95;;;9.57;;
85328;SDS011;76315;47.638;21.652;2024-03-02T07:39:22;18.65;;;10.35;;
85328;SDS011;76315;47.638;21.652;2024-03-02T07:41:47;18.37;;;8.80;;
85328;SDS011;76315;47.638;21.652;2024-03-02T07:44:13;18.97;;;9.27;;
85328;SDS011;76315;47.638;21.652;2024-03-02T07:46:43;18.75;;;9.10;;
85328;SDS011;76315;47.638;21.652;2024-03-02T07:49:09;18.35;;;9.52;;
85328;SDS011;76315;47.638;21.652;2024-03-02T07:51:34;18.70;;;8.83;;
85328;SDS011;76315;47.638;21.652;2024-03-02T07:54:01;17.05;;;8.45;;
85328;SDS011;76315;47.638;21.652;2024-03-02T07:56:27;18.98;;;9.60;;
85328;SDS011;76315;47.638;21.652;2024-03-02T07:58:55;16.23;;;8.63;;
85328;SDS011;76315;47.638;21.652;2024-03-02T08:01:22;17.30;;;9.40;;
85328;SDS011;76315;47.638;21.652;2024-03-02T08:03:50;17.70;;;9.63;;
85328;SDS011;76315;47.638;21.652;2024-03-02T08:06:17;18.00;;;9.52;;
85328;SDS011;76315;47.638;21.652;2024-03-02T08:08:45;19.20;;;10.07;;
85328;SDS011;76315;47.638;21.652;2024-03-02T08:11:11;21.43;;;10.47;;
85328;SDS011;76315;47.638;21.652;2024-03-02T08:13:37;21.33;;;10.13;;
85328;SDS011;76315;47.638;21.652;2024-03-02T08:16:03;19.13;;;9.70;;
85328;SDS011;76315;47.638;21.652;2024-03-02T08:18:32;20.60;;;10.38;;
85328;SDS011;76315;47.638;21.652;2024-03-02T08:21:03;19.88;;;10.90;;
85328;SDS011;76315;47.638;21.652;2024-03-02T08:23:30;19.05;;;10.15;;
85328;SDS011;76315;47.638;21.652;2024-03-02T08:25:57;19.97;;;10.63;;
85328;SDS011;76315;47.638;21.652;2024-03-02T08:28:22;19.65;;;10.15;;
85328;SDS011;76315;47.638;21.652;2024-03-02T08:30:48;20.73;;;10.60;;
85328;SDS011;76315;47.638;21.652;2024-03-02T08:33:14;16.40;;;10.55;;
85328;SDS011;76315;47.638;21.652;2024-03-02T08:35:42;18.87;;;9.73;;
85328;SDS011;76315;47.638;21.652;2024-03-02T08:38:08;16.48;;;9.52;;
85328;SDS011;76315;47.638;21.652;2024-03-02T08:40:34;18.23;;;9.37;;
85328;SDS011;76315;47.638;21.652;2024-03-02T08:42:59;16.55;;;8.77;;
85328;SDS011;76315;47.638;21.652;2024-03-02T08:45:25;20.90;;;9.10;;
85328;SDS011;76315;47.638;21.652;2024-03-02T08:47:50;18.37;;;9.63;;
85328;SDS011;76315;47.638;21.652;2024-03-02T08:50:16;14.87;;;7.53;;
85328;SDS011;76315;47.638;21.652;2024-03-02T08:52:42;15.77;;;9.13;;
85328;SDS011;76315;47.638;21.652;2024-03-02T08:55:08;16.48;;;8.40;;
85328;SDS011;76315;47.638;21.652;2024-03-02T08:57:33;18.30;;;8.97;;
85328;SDS011;76315;47.638;21.652;2024-03-02T08:59:59;15.80;;;8.52;;
85328;SDS011;76315;47.638;21.652;2024-03-02T09:02:25;18.20;;;9.97;;
85328;SDS011;76315;47.638;21.652;2024-03-02T09:04:50;16.55;;;8.73;;
85328;SDS011;76315;47.638;21.652;2024-03-02T09:07:16;14.53;;;8.33;;
85328;SDS011;76315;47.638;21.652;2024-03-02T09:09:42;14.38;;;8.25;;
85328;SDS011;76315;47.638;21.652;2024-03-02T09:12:08;14.43;;;8.13;;
85328;SDS011;76315;47.638;21.652;2024-03-02T09:14:33;17.40;;;7.32;;
85328;SDS011;76315;47.638;21.652;2024-03-02T09:17:00;15.55;;;7.93;;
85328;SDS011;76315;47.638;21.652;2024-03-02T09:19:25;14.87;;;7.10;;
85328;SDS011;76315;47.638;21.652;2024-03-02T09:21:51;17.40;;;8.37;;
85328;SDS011;76315;47.638;21.652;2024-03-02T09:24:16;14.70;;;7.75;;
85328;SDS011;76315;47.638;21.652;2024-03-02T09:26:42;16.53;;;7.87;;
85328;SDS011;76315;47.638;21.652;2024-03-02T09:29:07;13.97;;;7.63;;
85328;SDS011;76315;47.638;21.652;2024-03-02T09:31:38;14.10;;;7.43;;
85328;SDS011;76315;47.638;21.652;2024-03-02T09:34:05;15.48;;;7.95;;
85328;SDS011;76315;47.638;21.652;2024-03-02T09:36:30;13.20;;;6.57;;
85328;SDS011;76315;47.638;21.652;2024-03-02T09:38:56;12.32;;;6.30;;
85328;SDS011;76315;47.638;21.652;2024-03-02T09:41:22;12.17;;;6.80;;
85328;SDS011;76315;47.638;21.652;2024-03-02T09:43:50;12.73;;;5.80;;
85328;SDS011;76315;47.638;21.652;2024-03-02T09:46:16;10.67;;;5.67;;
85328;SDS011;76315;47.638;21.652;2024-03-02T09:48:43;10.93;;;5.33;;
85328;SDS011;76315;47.638;21.652;2024-03-02T09:51:10;12.30;;;6.03;;
85328;SDS011;76315;47.638;21.652;2024-03-02T09:53:35;11.25;;;5.75;;
85328;SDS011;76315;47.638;21.652;2024-03-02T09:56:02;9.93;;;5.78;;
85328;SDS011;76315;47.638;21.652;2024-03-02T09:58:29;13.57;;;6.50;;
85328;SDS011;76315;47.638;21.652;2024-03-02T10:00:58;11.13;;;6.32;;
85328;SDS011;76315;47.638;21.652;2024-03-02T10:03:24;9.68;;;4.95;;
85328;SDS011;76315;47.638;21.652;2024-03-02T10:05:50;12.60;;;6.00;;
85328;SDS011;76315;47.638;21.652;2024-03-02T10:08:16;13.02;;;5.93;;
85328;SDS011;76315;47.638;21.652;2024-03-02T10:10:42;11.95;;;6.45;;
85328;SDS011;76315;47.638;21.652;2024-03-02T10:13:11;10.32;;;6.03;;
85328;SDS011;76315;47.638;21.652;2024-03-02T10:15:38;10.97;;;5.97;;
85328;SDS011;76315;47.638;21.652;2024-03-02T10:18:11;12.40;;;6.47;;
85328;SDS011;76315;47.638;21.652;2024-03-02T10:20:37;12.27;;;6.50;;
85328;SDS011;76315;47.638;21.652;2024-03-02T10:23:13;11.93;;;5.70;;
85328;SDS011;76315;47.638;21.652;2024-03-02T10:25:40;10.55;;;5.93;;
85328;SDS011;76315;47.638;21.652;2024-03-02T10:28:06;9.63;;;5.77;;
85328;SDS011;76315;47.638;21.652;2024-03-02T10:30:34;11.00;;;6.07;;
85328;SDS011;76315;47.638;21.652;2024-03-02T10:33:01;11.50;;;6.28;;
85328;SDS011;76315;47.638;21.652;2024-03-02T10:35:27;10.03;;;5.30;;
85328;SDS011;76315;47.638;21.652;2024-03-02T10:37:53;10.10;;;5.18;;
85328;SDS011;76315;47.638;21.652;2024-03-02T10:40:21;8.75;;;4.63;;
85328;SDS011;76315;47.638;21.652;2024-03-02T10:42:48;10.17;;;5.23;;
85328;SDS011;76315;47.638;21.652;2024-03-02T10:45:15;13.00;;;6.45;;
85328;SDS011;76315;47.638;21.652;2024-03-02T10:47:44;10.70;;;5.93;;
85328;SDS011;76315;47.638;21.652;2024-03-02T10:50:12;11.40;;;6.25;;
85328;SDS011;76315;47.638;21.652;2024-03-02T10:52:38;13.00;;;6.50;;
85328;SDS011;76315;47.638;21.652;2024-03-02T10:55:10;13.07;;;6.10;;
85328;SDS011;76315;47.638;21.652;2024-03-02T11:00:19;10.85;;;5.53;;
85328;SDS011;76315;47.638;21.652;2024-03-02T11:02:50;14.98;;;6.45;;
85328;SDS011;76315;47.638;21.652;2024-03-02T11:05:22;9.90;;;5.73;;
85328;SDS011;76315;47.638;21.652;2024-03-02T11:07:52;13.25;;;5.57;;
85328;SDS011;76315;47.638;21.652;2024-03-02T11:10:22;9.13;;;4.65;;
85328;SDS011;76315;47.638;21.652;2024-03-02T11:12:53;12.40;;;5.43;;
85328;SDS011;76315;47.638;21.652;2024-03-02T11:15:21;10.85;;;5.63;;
85328;SDS011;76315;47.638;21.652;2024-03-02T11:17:51;9.17;;;5.00;;
85328;SDS011;76315;47.638;21.652;2024-03-02T11:20:17;9.95;;;5.20;;
85328;SDS011;76315;47.638;21.652;2024-03-02T11:22:44;7.82;;;4.20;;
85328;SDS011;76315;47.638;21.652;2024-03-02T11:25:31;7.40;;;3.73;;
85328;SDS011;76315;47.638;21.652;2024-03-02T11:28:00;10.70;;;3.97;;
85328;SDS011;76315;47.638;21.652;2024-03-02T11:33:00;7.57;;;3.90;;
85328;SDS011;76315;47.638;21.652;2024-03-02T11:35:35;7.65;;;3.33;;
85328;SDS011;76315;47.638;21.652;2024-03-02T11:38:01;7.17;;;3.60;;
85328;SDS011;76315;47.638;21.652;2024-03-02T11:40:28;7.78;;;4.10;;
85328;SDS011;76315;47.638;21.652;2024-03-02T11:42:54;7.47;;;3.92;;
85328;SDS011;76315;47.638;21.652;2024-03-02T11:45:26;9.73;;;4.18;;
85328;SDS011;76315;47.638;21.652;2024-03-02T11:47:55;8.77;;;4.43;;
85328;SDS011;76315;47.638;21.652;2024-03-02T11:50:41;9.93;;;4.32;;
85328;SDS011;76315;47.638;21.652;2024-03-02T11:53:12;10.35;;;4.65;;
85328;SDS011;76315;47.638;21.652;2024-03-02T11:55:38;10.75;;;4.45;;
85328;SDS011;76315;47.638;21.652;2024-03-02T11:58:06;8.65;;;4.45;;
85328;SDS011;76315;47.638;21.652;2024-03-02T12:00:33;8.73;;;4.20;;
85328;SDS011;76315;47.638;21.652;2024-03-02T12:03:08;8.48;;;4.60;;
85328;SDS011;76315;47.638;21.652;2024-03-02T12:05:35;8.18;;;4.60;;
85328;SDS011;76315;47.638;21.652;2024-03-02T12:08:02;12.70;;;4.53;;
85328;SDS011;76315;47.638;21.652;2024-03-02T12:10:31;8.63;;;4.73;;
85328;SDS011;76315;47.638;21.652;2024-03-02T12:12:57;9.07;;;5.32;;
85328;SDS011;76315;47.638;21.652;2024-03-02T12:15:28;11.13;;;5.28;;
85328;SDS011;76315;47.638;21.652;2024-03-02T12:17:58;11.05;;;5.40;;
85328;SDS011;76315;47.638;21.652;2024-03-02T12:20:26;9.40;;;5.00;;
85328;SDS011;76315;47.638;21.652;2024-03-02T12:22:54;11.73;;;4.97;;
85328;SDS011;76315;47.638;21.652;2024-03-02T12:25:21;9.45;;;4.78;;
85328;SDS011;76315;47.638;21.652;2024-03-02T12:27:52;10.50;;;5.90;;
85328;SDS011;76315;47.638;21.652;2024-03-02T12:30:21;9.23;;;5.13;;
85328;SDS011;76315;47.638;21.652;2024-03-02T12:32:48;10.20;;;5.50;;
85328;SDS011;76315;47.638;21.652;2024-03-02T12:35:14;9.37;;;4.57;;
85328;SDS011;76315;47.638;21.652;2024-03-02T12:37:47;9.65;;;4.93;;
85328;SDS011;76315;47.638;21.652;2024-03-02T12:40:14;9.70;;;5.63;;
85328;SDS011;76315;47.638;21.652;2024-03-02T12:42:45;10.23;;;4.55;;
85328;SDS011;76315;47.638;21.652;2024-03-02T12:45:13;11.45;;;5.53;;
85328;SDS011;76315;47.638;21.652;2024-03-02T12:47:40;12.07;;;6.13;;
85328;SDS011;76315;47.638;21.652;2024-03-02T12:50:07;12.85;;;6.13;;
85328;SDS011;76315;47.638;21.652;2024-03-02T12:52:33;13.13;;;5.93;;
85328;SDS011;76315;47.638;21.652;2024-03-02T12:54:59;11.80;;;6.60;;
85328;SDS011;76315;47.638;21.652;2024-03-02T12:57:26;11.85;;;6.47;;
85328;SDS011;76315;47.638;21.652;2024-03-02T12:59:54;11.13;;;6.10;;
85328;SDS011;76315;47.638;21.652;2024-03-02T13:02:23;12.07;;;5.72;;
85328;SDS011;76315;47.638;21.652;2024-03-02T13:04:52;10.13;;;5.97;;
85328;SDS011;76315;47.638;21.652;2024-03-02T13:07:22;12.05;;;5.72;;
85328;SDS011;76315;47.638;21.652;2024-03-02T13:09:52;11.88;;;6.32;;
85328;SDS011;76315;47.638;21.652;2024-03-02T13:12:21;12.07;;;6.03;;
85328;SDS011;76315;47.638;21.652;2024-03-02T13:14:52;10.70;;;5.80;;
85328;SDS011;76315;47.638;21.652;2024-03-02T13:17:18;10.75;;;5.75;;
85328;SDS011;76315;47.638;21.652;2024-03-02T13:19:56;12.07;;;6.10;;
85328;SDS011;76315;47.638;21.652;2024-03-02T13:22:23;12.50;;;6.57;;
85328;SDS011;76315;47.638;21.652;2024-03-02T13:24:49;11.83;;;6.17;;
85328;SDS011;76315;47.638;21.652;2024-03-02T13:27:15;13.35;;;6.38;;
85328;SDS011;76315;47.638;21.652;2024-03-02T13:29:44;11.88;;;6.60;;
85328;SDS011;76315;47.638;21.652;2024-03-02T13:32:09;10.23;;;5.88;;
85328;SDS011;76315;47.638;21.652;2024-03-02T13:34:35;12.73;;;6.57;;
85328;SDS011;76315;47.638;21.652;2024-03-02T13:37:04;13.55;;;6.28;;
85328;SDS011;76315;47.638;21.652;2024-03-02T13:39:31;11.85;;;6.80;;
85328;SDS011;76315;47.638;21.652;2024-03-02T13:42:00;14.50;;;6.87;;
85328;SDS011;76315;47.638;21.652;2024-03-02T13:44:31;12.93;;;6.55;;
85328;SDS011;76315;47.638;21.652;2024-03-02T13:46:56;12.82;;;6.72;;
85328;SDS011;76315;47.638;21.652;2024-03-02T13:49:24;12.82;;;7.28;;
85328;SDS011;76315;47.638;21.652;2024-03-02T13:51:53;15.50;;;6.77;;
85328;SDS011;76315;47.638;21.652;2024-03-02T13:54:20;13.52;;;6.95;;
85328;SDS011;76315;47.638;21.652;2024-03-02T13:56:46;13.43;;;6.78;;
85328;SDS011;76315;47.638;21.652;2024-03-02T13:59:14;13.13;;;6.57;;
85328;SDS011;76315;47.638;21.652;2024-03-02T14:01:39;11.68;;;6.28;;
85328;SDS011;76315;47.638;21.652;2024-03-02T14:04:05;12.37;;;5.93;;
85328;SDS011;76315;47.638;21.652;2024-03-02T14:06:30;11.10;;;5.90;;
85328;SDS011;76315;47.638;21.652;2024-03-02T14:08:56;12.32;;;6.10;;
85328;SDS011;76315;47.638;21.652;2024-03-02T14:11:21;12.83;;;6.27;;
85328;SDS011;76315;47.638;21.652;2024-03-02T14:13:47;12.65;;;6.30;;
85328;SDS011;76315;47.638;21.652;2024-03-02T14:16:18;12.63;;;6.63;;
85328;SDS011;76315;47.638;21.652;2024-03-02T14:18:44;13.80;;;7.28;;
85328;SDS011;76315;47.638;21.652;2024-03-02T14:21:10;13.30;;;7.75;;
85328;SDS011;76315;47.638;21.652;2024-03-02T14:23:36;13.40;;;7.07;;
85328;SDS011;76315;47.638;21.652;2024-03-02T14:26:02;13.18;;;6.93;;
85328;SDS011;76315;47.638;21.652;2024-03-02T14:28:27;10.47;;;5.57;;
85328;SDS011;76315;47.638;21.652;2024-03-02T14:30:53;9.37;;;5.10;;